createdAt,value
2017-10-24T00:02:22.226Z,99838.50
2017-10-24T00:04:49.689Z,99839.38
2017-10-24T00:07:17.166Z,99845.33
2017-10-24T00:09:44.637Z,99877.25
2017-10-24T00:12:12.093Z,99869.64
2017-10-24T00:14:39.580Z,99868.39
2017-10-24T00:17:07.035Z,99866.26
2017-10-24T00:19:34.513Z,99847.95
2017-10-24T00:22:01.998Z,99864.19
2017-10-24T00:24:29.457Z,99868.85
2017-10-24T00:26:56.916Z,99866.75
2017-10-24T00:29:24.411Z,99869.73
2017-10-24T00:31:51.872Z,99876.50
2017-10-24T00:34:19.333Z,99873.94
2017-10-24T00:36:46.818Z,99875.64
2017-10-24T00:39:14.282Z,99890.52
2017-10-24T00:41:41.734Z,99897.80
2017-10-24T00:44:09.208Z,99883.69
2017-10-24T00:46:36.667Z,99885.82
2017-10-24T00:49:04.131Z,99912.36
2017-10-24T00:51:31.623Z,99899.11
2017-10-24T00:53:59.087Z,99884.60
2017-10-24T00:56:26.557Z,99884.11
2017-10-24T00:58:54.024Z,99895.59
2017-10-24T01:01:21.477Z,99902.00
2017-10-24T01:03:48.922Z,99887.10
2017-10-24T01:06:16.441Z,99884.91
2017-10-24T01:08:43.911Z,99891.30
2017-10-24T01:11:11.371Z,99889.53
2017-10-24T01:13:38.845Z,99893.80
2017-10-24T01:16:06.303Z,99893.83
2017-10-24T01:18:33.770Z,99886.94
2017-10-24T01:21:01.280Z,99921.50
2017-10-24T01:23:28.764Z,99922.39
2017-10-24T01:25:56.225Z,99910.83
2017-10-24T01:28:23.685Z,99924.55
2017-10-24T01:30:51.162Z,99899.38
2017-10-24T01:33:18.633Z,99922.39
2017-10-24T01:35:46.139Z,99902.33
2017-10-24T01:38:13.650Z,99927.97
2017-10-24T01:40:41.124Z,99904.89
2017-10-24T01:43:08.586Z,99911.72
2017-10-24T01:45:36.097Z,99906.63
2017-10-24T01:48:03.565Z,99916.84
2017-10-24T01:50:31.134Z,99955.73
2017-10-24T01:52:58.604Z,99898.95
2017-10-24T01:55:26.077Z,99934.33
2017-10-24T01:57:53.574Z,99901.51
2017-10-24T02:00:21.089Z,99902.33
2017-10-24T02:02:48.541Z,99934.40
2017-10-24T02:05:16.026Z,99913.89
2017-10-24T02:07:43.500Z,99931.80
2017-10-24T02:10:10.958Z,99896.45
2017-10-24T02:12:38.445Z,99901.97
2017-10-24T02:15:05.922Z,99923.79
2017-10-24T02:17:33.392Z,99909.22
2017-10-24T02:20:00.915Z,99921.20
2017-10-24T02:22:28.399Z,99924.59
2017-10-24T02:24:55.867Z,99917.02
2017-10-24T02:27:23.334Z,99914.41
2017-10-24T02:29:50.789Z,99945.55
2017-10-24T02:32:18.249Z,99922.02
2017-10-24T02:34:45.788Z,99934.77
2017-10-24T02:37:13.238Z,99937.81
2017-10-24T02:39:40.688Z,99933.97
2017-10-24T02:42:08.176Z,99960.85
2017-10-24T02:44:35.650Z,99951.89
2017-10-24T02:47:03.120Z,99925.84
2017-10-24T02:49:30.635Z,99951.09
2017-10-24T02:51:58.123Z,99970.18
2017-10-24T02:54:25.584Z,99946.34
2017-10-24T02:56:53.038Z,99946.34
2017-10-24T02:59:20.525Z,99964.20
2017-10-24T03:01:47.983Z,99949.73
2017-10-24T03:04:15.444Z,99964.70
2017-10-24T03:06:42.892Z,99973.66
2017-10-24T03:09:10.348Z,100000.56
2017-10-24T03:11:37.843Z,100011.62
2017-10-24T03:14:05.295Z,99981.73
2017-10-24T03:16:32.756Z,99983.89
2017-10-24T03:19:00.258Z,99980.00
2017-10-24T03:24:00.067Z,99986.80
2017-10-24T03:26:27.551Z,99988.08
2017-10-24T03:28:55.020Z,99996.52
2017-10-24T03:31:22.488Z,99994.50
2017-10-24T03:33:49.945Z,100027.02
2017-10-24T03:36:17.418Z,100006.97
2017-10-24T03:38:44.899Z,100004.80
2017-10-24T03:41:12.377Z,100014.69
2017-10-24T03:43:39.840Z,100014.77
2017-10-24T03:46:07.344Z,100004.10
2017-10-24T03:48:34.814Z,100007.03
2017-10-24T03:51:02.290Z,100039.48
2017-10-24T03:53:29.818Z,100031.85
2017-10-24T03:55:57.287Z,100037.78
2017-10-24T03:58:24.753Z,100019.87
2017-10-24T04:00:52.245Z,100043.39
2017-10-24T04:03:19.738Z,100020.73
2017-10-24T04:05:47.386Z,100021.59
2017-10-24T04:08:14.885Z,100037.00
2017-10-24T04:10:42.363Z,100039.53
2017-10-24T04:13:09.823Z,100036.50
2017-10-24T04:15:37.321Z,100045.45
2017-10-24T04:18:04.823Z,100030.98
2017-10-24T04:20:32.303Z,100037.33
2017-10-24T04:22:59.838Z,100038.16
2017-10-24T04:25:27.308Z,100051.41
2017-10-24T04:27:54.766Z,100044.16
2017-10-24T04:30:22.245Z,100034.77
2017-10-24T04:32:49.708Z,100043.30
2017-10-24T04:35:17.198Z,100049.67
2017-10-24T04:37:44.696Z,100053.94
2017-10-24T04:40:12.175Z,100048.39
2017-10-24T04:42:39.660Z,100059.06
2017-10-24T04:45:07.181Z,100039.02
2017-10-24T04:47:34.652Z,100043.70
2017-10-24T04:50:02.113Z,100049.22
2017-10-24T04:52:29.602Z,100040.67
2017-10-24T04:54:57.073Z,100059.02
2017-10-24T04:57:24.553Z,100060.74
2017-10-24T04:59:52.051Z,100063.71
2017-10-24T05:02:19.510Z,100077.39
2017-10-24T05:04:47.018Z,100088.08
2017-10-24T05:07:14.491Z,100066.31
2017-10-24T05:09:41.973Z,100075.25
2017-10-24T05:12:09.490Z,100088.08
2017-10-24T05:14:37.025Z,100076.98
2017-10-24T05:17:04.483Z,100091.87
2017-10-24T05:19:31.985Z,100091.44
2017-10-24T05:21:59.466Z,100087.25
2017-10-24T05:24:26.978Z,100087.23
2017-10-24T05:26:54.454Z,100092.73
2017-10-24T05:29:21.929Z,100110.27
2017-10-24T05:31:49.402Z,100097.42
2017-10-24T05:34:16.995Z,100101.66
2017-10-24T05:36:44.473Z,100105.90
2017-10-24T05:39:11.944Z,100109.27
2017-10-24T05:41:39.417Z,100112.27
2017-10-24T05:44:07.811Z,100127.67
2017-10-24T05:46:35.273Z,100133.64
2017-10-24T05:49:02.739Z,100128.50
2017-10-24T05:51:30.207Z,100122.12
2017-10-24T05:53:57.695Z,100140.83
2017-10-24T05:56:25.263Z,100126.72
2017-10-24T05:58:52.752Z,100126.73
2017-10-24T06:01:20.234Z,100132.28
2017-10-24T06:03:47.731Z,100133.11
2017-10-24T06:06:15.230Z,100127.08
2017-10-24T06:08:42.701Z,100153.55
2017-10-24T06:11:10.172Z,100136.00
2017-10-24T06:13:37.672Z,100139.44
2017-10-24T06:16:05.189Z,100159.86
2017-10-24T06:18:32.923Z,100152.60
2017-10-24T06:21:00.401Z,100147.50
2017-10-24T06:23:27.861Z,100157.27
2017-10-24T06:25:55.361Z,100150.89
2017-10-24T06:28:22.876Z,100177.38
2017-10-24T06:30:50.341Z,100165.81
2017-10-24T06:33:17.809Z,100171.31
2017-10-24T06:35:45.356Z,100177.67
2017-10-24T06:38:12.847Z,100184.98
2017-10-24T06:40:40.340Z,100196.08
2017-10-24T06:43:07.935Z,100201.16
2017-10-24T06:45:35.411Z,100192.17
2017-10-24T06:48:02.901Z,100199.83
2017-10-24T06:50:30.370Z,100206.64
2017-10-24T06:52:57.825Z,100244.27
2017-10-24T06:55:25.315Z,100219.91
2017-10-24T06:57:52.825Z,100222.42
2017-10-24T07:00:20.313Z,100241.61
2017-10-24T07:02:47.855Z,100222.89
2017-10-24T07:05:15.343Z,100227.95
2017-10-24T07:07:42.807Z,100233.48
2017-10-24T07:10:10.287Z,100230.09
2017-10-24T07:12:37.777Z,100234.26
2017-10-24T07:15:05.263Z,100236.75
2017-10-24T07:17:32.724Z,100226.57
2017-10-24T07:20:00.235Z,100229.55
2017-10-24T07:22:27.718Z,100237.70
2017-10-24T07:24:55.219Z,100232.95
2017-10-24T07:27:22.702Z,100235.44
2017-10-24T07:29:50.171Z,100246.90
2017-10-24T07:32:17.831Z,100235.70
2017-10-24T07:34:45.297Z,100235.28
2017-10-24T07:37:12.776Z,100260.92
2017-10-24T07:39:40.257Z,100243.02
2017-10-24T07:42:07.748Z,100233.59
2017-10-24T07:44:35.226Z,100233.05
2017-10-24T07:47:02.686Z,100223.56
2017-10-24T07:49:30.196Z,100256.02
2017-10-24T07:51:57.665Z,100235.07
2017-10-24T07:54:25.143Z,100257.73
2017-10-24T07:56:52.680Z,100234.19
2017-10-24T07:59:20.204Z,100261.83
2017-10-24T08:01:47.695Z,100240.20
2017-10-24T08:04:15.183Z,100259.91
2017-10-24T08:06:43.186Z,100243.10
2017-10-24T08:09:10.697Z,100260.84
2017-10-24T08:11:38.183Z,100261.00
2017-10-24T08:14:05.683Z,100259.35
2017-10-24T08:16:33.195Z,100254.59
2017-10-24T08:19:00.704Z,100256.20
2017-10-24T08:21:28.195Z,100255.67
2017-10-24T08:23:55.712Z,100251.26
2017-10-24T08:26:23.337Z,100275.94
2017-10-24T08:28:50.836Z,100251.39
2017-10-24T08:31:18.325Z,100243.98
2017-10-24T08:33:45.809Z,100264.38
2017-10-24T08:36:13.588Z,100248.62
2017-10-24T08:38:41.121Z,100253.06
2017-10-24T08:41:08.671Z,100251.82
2017-10-24T08:43:36.214Z,100253.61
2017-10-24T08:46:03.718Z,100256.42
2017-10-24T08:48:31.236Z,100252.44
2017-10-24T08:50:58.769Z,100255.02
2017-10-24T08:53:26.260Z,100249.56
2017-10-24T08:55:53.776Z,100262.30
2017-10-24T08:58:21.276Z,100251.77
2017-10-24T09:00:48.805Z,100271.23
2017-10-24T09:03:16.318Z,100251.23
2017-10-24T09:06:08.991Z,100255.85
2017-10-24T09:11:47.899Z,100256.63
2017-10-24T09:14:18.205Z,100270.00
2017-10-24T09:16:55.612Z,100272.14
2017-10-24T09:20:01.163Z,100269.12
2017-10-24T09:22:29.189Z,100270.09
2017-10-24T09:24:56.708Z,100263.45
2017-10-24T09:27:24.282Z,100272.11
2017-10-24T09:29:51.951Z,100263.22
2017-10-24T09:32:19.460Z,100272.06
2017-10-24T09:34:46.993Z,100274.55
2017-10-24T09:37:14.512Z,100267.98
2017-10-24T09:39:42.026Z,100272.51
2017-10-24T09:42:09.514Z,100271.66
2017-10-24T09:44:37.002Z,100291.73
2017-10-24T09:47:04.507Z,100279.70
2017-10-24T09:49:32.016Z,100289.70
2017-10-24T09:51:59.518Z,100288.84
2017-10-24T09:54:27.029Z,100284.73
2017-10-24T09:56:54.605Z,100292.45
2017-10-24T09:59:39.157Z,100305.42
2017-10-24T10:02:06.690Z,100319.28
2017-10-24T10:04:34.177Z,100322.70
2017-10-24T10:07:04.589Z,100310.69
2017-10-24T10:09:32.080Z,100311.22
2017-10-24T10:11:59.614Z,100314.45
2017-10-24T10:14:27.120Z,100311.56
2017-10-24T10:16:54.633Z,100312.25
2017-10-24T10:19:22.163Z,100311.01
2017-10-24T10:21:50.444Z,100317.88
2017-10-24T10:24:31.598Z,100318.63
2017-10-24T10:26:59.098Z,100315.50
2017-10-24T10:29:26.629Z,100327.08
2017-10-24T10:31:54.134Z,100321.07
2017-10-24T10:34:21.645Z,100326.60
2017-10-24T10:36:49.161Z,100326.88
2017-10-24T10:39:16.703Z,100338.13
2017-10-24T10:41:44.225Z,100333.94
2017-10-24T10:44:11.717Z,100325.83
2017-10-24T10:46:39.225Z,100336.17
2017-10-24T10:49:06.722Z,100333.70
2017-10-24T10:51:34.224Z,100325.08
2017-10-24T10:54:01.724Z,100318.92
2017-10-24T10:56:29.228Z,100333.23
2017-10-24T10:58:56.733Z,100323.22
2017-10-24T11:01:24.354Z,100330.16
2017-10-24T11:03:51.837Z,100323.16
2017-10-24T11:06:19.329Z,100331.36
2017-10-24T11:08:46.819Z,100313.92
2017-10-24T11:11:14.325Z,100317.01
2017-10-24T11:13:41.836Z,100303.92
2017-10-24T11:16:10.717Z,100314.63
2017-10-24T11:18:38.234Z,100305.77
2017-10-24T11:21:05.734Z,100295.15
2017-10-24T11:23:33.250Z,100311.70
2017-10-24T11:26:00.741Z,100313.38
2017-10-24T11:28:28.267Z,100329.27
2017-10-24T11:30:55.777Z,100323.14
2017-10-24T11:33:23.281Z,100314.30
2017-10-24T11:35:50.904Z,100315.78
2017-10-24T11:38:18.414Z,100305.02
2017-10-24T11:40:45.924Z,100304.73
2017-10-24T11:43:13.428Z,100292.83
2017-10-24T11:45:40.931Z,100298.34
2017-10-24T11:48:08.500Z,100298.73
2017-10-24T11:50:37.822Z,100300.77
2017-10-24T11:53:06.086Z,100300.40
2017-10-24T11:55:33.614Z,100293.63
2017-10-24T11:58:01.092Z,100310.30
2017-10-24T12:00:28.636Z,100306.11
2017-10-24T12:02:56.629Z,100288.29
2017-10-24T12:05:24.142Z,100292.91
2017-10-24T12:07:51.645Z,100289.72
2017-10-24T12:10:19.716Z,100285.42
2017-10-24T12:12:47.350Z,100292.78
2017-10-24T12:15:14.860Z,100282.31
2017-10-24T12:17:42.394Z,100280.80
2017-10-24T12:20:09.889Z,100277.86
2017-10-24T12:22:37.383Z,100287.47
2017-10-24T12:25:04.908Z,100278.65
2017-10-24T12:27:32.429Z,100283.73
2017-10-24T12:29:59.967Z,100276.84
2017-10-24T12:32:27.481Z,100290.31
2017-10-24T12:34:54.980Z,100290.47
2017-10-24T12:37:22.522Z,100287.56
2017-10-24T12:39:50.034Z,100298.30
2017-10-24T12:42:30.127Z,100304.30
2017-10-24T12:44:57.688Z,100293.11
2017-10-24T12:47:25.198Z,100290.28
2017-10-24T12:49:54.104Z,100287.28
2017-10-24T12:52:23.297Z,100278.98
2017-10-24T12:54:50.871Z,100280.92
2017-10-24T12:57:35.072Z,100278.94
2017-10-24T13:00:02.709Z,100279.94
2017-10-24T13:02:30.415Z,100292.92
2017-10-24T13:04:57.947Z,100278.18
2017-10-24T13:07:26.000Z,100284.25
2017-10-24T13:09:53.733Z,100277.48
2017-10-24T13:12:21.796Z,100278.30
2017-10-24T13:14:49.421Z,100271.27
2017-10-24T13:17:16.946Z,100262.14
2017-10-24T13:19:44.462Z,100259.84
2017-10-24T13:22:11.982Z,100257.63
2017-10-24T13:24:39.458Z,100275.89
2017-10-24T13:27:06.979Z,100266.92
2017-10-24T13:29:34.471Z,100279.58
2017-10-24T13:32:01.988Z,100279.26
2017-10-24T13:34:29.486Z,100274.37
2017-10-24T13:36:57.014Z,100278.45
2017-10-24T13:39:24.503Z,100278.83
2017-10-24T13:41:51.994Z,100276.67
2017-10-24T13:44:19.510Z,100286.66
2017-10-24T13:46:46.992Z,100281.84
2017-10-24T13:49:14.487Z,100281.03
2017-10-24T13:51:41.990Z,100286.07
2017-10-24T13:54:09.495Z,100287.02
2017-10-24T13:56:37.005Z,100282.48
2017-10-24T13:59:04.485Z,100287.55
2017-10-24T14:01:32.023Z,100294.05
2017-10-24T14:03:59.549Z,100289.38
2017-10-24T14:06:32.685Z,100282.42
2017-10-24T14:12:03.767Z,100281.77
2017-10-24T14:14:31.270Z,100282.14
2017-10-24T14:16:58.780Z,100283.86
2017-10-24T14:19:26.299Z,100285.81
2017-10-24T14:21:53.802Z,100287.86
2017-10-24T14:24:21.345Z,100278.75
2017-10-24T14:26:48.853Z,100295.34
2017-10-24T14:29:16.422Z,100282.86
2017-10-24T14:31:44.031Z,100289.30
2017-10-24T14:34:11.558Z,100298.40
2017-10-24T14:36:39.104Z,100306.02
2017-10-24T14:39:06.733Z,100297.02
2017-10-24T14:41:34.257Z,100297.58
2017-10-24T14:44:01.769Z,100300.49
2017-10-24T14:46:29.411Z,100297.63
2017-10-24T14:48:56.911Z,100300.25
2017-10-24T14:51:24.422Z,100297.73
2017-10-24T14:53:51.955Z,100303.59
2017-10-24T14:56:19.465Z,100307.53
2017-10-24T14:58:46.992Z,100317.44
2017-10-24T15:01:14.528Z,100315.72
2017-10-24T15:03:42.074Z,100321.64
2017-10-24T15:06:09.576Z,100328.50
2017-10-24T15:08:37.135Z,100334.63
2017-10-24T15:11:04.639Z,100332.95
2017-10-24T15:13:32.126Z,100337.24
2017-10-24T15:15:59.597Z,100336.00
2017-10-24T15:18:27.129Z,100341.91
2017-10-24T15:20:54.711Z,100354.30
2017-10-24T15:23:22.197Z,100345.25
2017-10-24T15:25:49.676Z,100350.11
2017-10-24T15:28:17.171Z,100350.06
2017-10-24T15:30:44.651Z,100352.71
2017-10-24T15:33:12.128Z,100358.67
2017-10-24T15:35:39.623Z,100364.28
2017-10-24T15:38:07.143Z,100366.09
2017-10-24T15:40:34.661Z,100366.04
2017-10-24T15:43:02.156Z,100384.05
2017-10-24T15:45:29.668Z,100374.53
2017-10-24T15:47:57.182Z,100379.80
2017-10-24T15:50:24.681Z,100381.78
2017-10-24T15:52:52.166Z,100387.39
2017-10-24T15:55:19.649Z,100391.25
2017-10-24T15:57:47.175Z,100398.10
2017-10-24T16:00:14.666Z,100393.13
2017-10-24T16:02:42.186Z,100392.57
2017-10-24T16:05:09.690Z,100399.51
2017-10-24T16:07:37.182Z,100397.45
2017-10-24T16:10:04.667Z,100401.34
2017-10-24T16:12:32.192Z,100399.12
2017-10-24T16:14:59.685Z,100410.77
2017-10-24T16:17:27.173Z,100412.52
2017-10-24T16:19:54.690Z,100403.48
2017-10-24T16:22:22.162Z,100408.20
2017-10-24T16:24:49.638Z,100419.05
2017-10-24T16:27:17.192Z,100413.45
2017-10-24T16:29:44.673Z,100417.81
2017-10-24T16:32:12.179Z,100420.34
2017-10-24T16:34:39.668Z,100418.73
2017-10-24T16:37:07.152Z,100429.05
2017-10-24T16:39:34.746Z,100423.45
2017-10-24T16:42:02.255Z,100424.27
2017-10-24T16:44:29.741Z,100428.52
2017-10-24T16:46:58.792Z,100423.41
2017-10-24T16:49:26.291Z,100434.98
2017-10-24T16:51:53.868Z,100437.91
2017-10-24T16:54:21.338Z,100437.66
2017-10-24T16:56:48.933Z,100443.98
2017-10-24T16:59:16.401Z,100454.65
2017-10-24T17:01:43.874Z,100453.40
2017-10-24T17:04:11.357Z,100457.78
2017-10-24T17:06:38.823Z,100465.52
2017-10-24T17:09:06.339Z,100461.60
2017-10-24T17:11:33.861Z,100459.49
2017-10-24T17:14:01.321Z,100459.46
2017-10-24T17:16:28.801Z,100454.39
2017-10-24T17:18:56.918Z,100455.61
2017-10-24T17:21:24.401Z,100459.86
2017-10-24T17:23:51.881Z,100465.45
2017-10-24T17:26:19.382Z,100463.75
2017-10-24T17:28:46.869Z,100450.53
2017-10-24T17:31:14.374Z,100452.58
2017-10-24T17:33:41.856Z,100463.64
2017-10-24T17:36:09.340Z,100460.15
2017-10-24T17:38:36.820Z,100464.89
2017-10-24T17:41:04.326Z,100464.50
2017-10-24T17:43:31.805Z,100463.78
2017-10-24T17:45:59.261Z,100469.67
2017-10-24T17:48:26.742Z,100465.75
2017-10-24T17:50:54.228Z,100467.60
2017-10-24T17:53:21.745Z,100467.50
2017-10-24T17:55:49.290Z,100469.18
2017-10-24T17:58:16.785Z,100468.65
2017-10-24T18:00:44.289Z,100459.36
2017-10-24T18:03:11.898Z,100468.03
2017-10-24T18:05:39.421Z,100467.17
2017-10-24T18:08:07.107Z,100461.17
2017-10-24T18:10:34.605Z,100471.09
2017-10-24T18:13:02.101Z,100461.20
2017-10-24T18:15:29.656Z,100457.54
2017-10-24T18:17:57.238Z,100454.63
2017-10-24T18:20:24.755Z,100464.85
2017-10-24T18:22:52.235Z,100452.03
2017-10-24T18:25:19.718Z,100452.80
2017-10-24T18:27:47.190Z,100451.94
2017-10-24T18:30:14.722Z,100459.53
2017-10-24T18:32:42.241Z,100468.09
2017-10-24T18:35:09.763Z,100463.08
2017-10-24T18:37:37.319Z,100458.70
2017-10-24T18:40:04.866Z,100461.77
2017-10-24T18:42:32.355Z,100464.79
2017-10-24T18:44:59.855Z,100457.20
2017-10-24T18:47:27.425Z,100463.11
2017-10-24T18:49:54.922Z,100455.37
2017-10-24T18:52:22.653Z,100460.41
2017-10-24T18:54:50.211Z,100462.09
2017-10-24T18:57:17.702Z,100459.43
2017-10-24T18:59:45.242Z,100462.89
2017-10-24T19:02:12.938Z,100460.97
2017-10-24T19:04:40.453Z,100461.83
2017-10-24T19:07:08.002Z,100460.99
2017-10-24T19:09:35.503Z,100461.42
2017-10-24T19:12:03.065Z,100453.44
2017-10-24T19:14:30.583Z,100458.48
2017-10-24T19:16:58.078Z,100465.34
2017-10-24T19:19:25.663Z,100457.57
2017-10-24T19:21:53.374Z,100467.05
2017-10-24T19:24:21.375Z,100469.25
2017-10-24T19:26:48.986Z,100468.36
2017-10-24T19:29:16.567Z,100464.79
2017-10-24T19:31:44.093Z,100466.93
2017-10-24T19:34:11.577Z,100468.25
2017-10-24T19:36:39.187Z,100476.34
2017-10-24T19:39:06.760Z,100466.87
2017-10-24T19:41:34.275Z,100465.30
2017-10-24T19:44:01.830Z,100463.22
2017-10-24T19:46:29.393Z,100469.87
2017-10-24T19:48:57.400Z,100466.50
2017-10-24T19:51:25.227Z,100463.56
2017-10-24T19:53:52.737Z,100462.37
2017-10-24T19:56:20.265Z,100468.39
2017-10-24T19:58:47.803Z,100472.06
2017-10-24T20:01:15.317Z,100470.05
2017-10-24T20:03:42.814Z,100470.36
2017-10-24T20:06:10.318Z,100467.05
2017-10-24T20:08:37.915Z,100458.43
2017-10-24T20:11:05.523Z,100464.30
2017-10-24T20:13:33.103Z,100476.52
2017-10-24T20:16:00.818Z,100461.33
2017-10-24T20:18:28.499Z,100457.91
2017-10-24T20:20:56.084Z,100451.75
2017-10-24T20:23:23.744Z,100468.67
2017-10-24T20:25:51.798Z,100457.23
2017-10-24T20:28:19.350Z,100464.42
2017-10-24T20:30:46.957Z,100463.69
2017-10-24T20:33:14.586Z,100465.79
2017-10-24T20:35:42.106Z,100463.66
2017-10-24T20:38:09.591Z,100461.54
2017-10-24T20:40:37.095Z,100459.94
2017-10-24T20:43:04.593Z,100462.56
2017-10-24T20:45:32.151Z,100475.80
2017-10-24T20:47:59.675Z,100465.18
2017-10-24T20:50:27.204Z,100461.41
2017-10-24T20:52:54.727Z,100464.90
2017-10-24T20:55:23.609Z,100457.98
2017-10-24T20:57:51.451Z,100461.14
2017-10-24T21:00:18.961Z,100473.53
2017-10-24T21:02:46.438Z,100471.06
2017-10-24T21:05:13.896Z,100459.56
2017-10-24T21:07:41.445Z,100453.14
2017-10-24T21:10:08.948Z,100457.48
2017-10-24T21:12:36.445Z,100454.45
2017-10-24T21:15:03.962Z,100451.98
2017-10-24T21:17:31.487Z,100451.16
2017-10-24T21:19:58.986Z,100453.73
2017-10-24T21:22:26.482Z,100454.14
2017-10-24T21:24:53.986Z,100457.19
2017-10-24T21:27:21.534Z,100452.94
2017-10-24T21:29:49.028Z,100455.09
2017-10-24T21:32:16.559Z,100457.69
2017-10-24T21:34:44.121Z,100456.42
2017-10-24T21:37:11.795Z,100456.88
2017-10-24T21:39:39.329Z,100454.72
2017-10-24T21:42:06.793Z,100462.88
2017-10-24T21:44:34.306Z,100461.59
2017-10-24T21:47:01.804Z,100456.02
2017-10-24T21:49:29.332Z,100458.58
2017-10-24T21:51:56.872Z,100448.82
2017-10-24T21:54:24.374Z,100447.11
2017-10-24T21:56:51.853Z,100459.16
2017-10-24T21:59:19.349Z,100451.50
2017-10-24T22:01:46.832Z,100454.03
2017-10-24T22:04:14.329Z,100453.20
2017-10-24T22:06:41.846Z,100456.18
2017-10-24T22:09:09.321Z,100443.30
2017-10-24T22:11:36.830Z,100465.95
2017-10-24T22:14:04.317Z,100457.41
2017-10-24T22:16:31.796Z,100448.00
2017-10-24T22:18:59.285Z,100453.55
2017-10-24T22:21:26.785Z,100459.97
2017-10-24T22:23:54.231Z,100464.24
2017-10-24T22:26:21.708Z,100458.72
2017-10-24T22:28:49.230Z,100457.01
2017-10-24T22:31:16.708Z,100452.75
2017-10-24T22:33:44.231Z,100457.89
2017-10-24T22:36:11.713Z,100456.19
2017-10-24T22:38:39.200Z,100450.20
2017-10-24T22:41:06.697Z,100448.52
2017-10-24T22:43:34.209Z,100446.41
2017-10-24T22:46:01.708Z,100443.83
2017-10-24T22:48:29.188Z,100446.36
2017-10-24T22:50:56.685Z,100441.30
2017-10-24T22:53:24.150Z,100438.75
2017-10-24T22:55:51.616Z,100436.17
2017-10-24T22:58:19.107Z,100436.16
2017-10-24T23:00:46.594Z,100432.30
2017-10-24T23:03:14.084Z,100432.69
2017-10-24T23:05:41.598Z,100437.00
2017-10-24T23:08:09.114Z,100434.44
2017-10-24T23:10:36.577Z,100423.33
2017-10-24T23:13:04.051Z,100433.98
2017-10-24T23:15:31.551Z,100430.55
2017-10-24T23:17:59.038Z,100424.61
2017-10-24T23:20:26.528Z,100425.09
2017-10-24T23:22:53.991Z,100421.27
2017-10-24T23:25:21.470Z,100425.53
2017-10-24T23:27:48.958Z,100421.27
2017-10-24T23:30:16.422Z,100420.80
2017-10-24T23:32:43.876Z,100417.84
2017-10-24T23:35:11.378Z,100422.91
2017-10-24T23:37:38.856Z,100415.68
2017-10-24T23:40:06.367Z,100410.15
2017-10-24T23:42:33.842Z,100409.73
2017-10-24T23:45:01.337Z,100403.76
2017-10-24T23:47:28.866Z,100405.47
2017-10-24T23:49:56.350Z,100405.08
2017-10-24T23:52:23.842Z,100405.47
2017-10-24T23:54:51.331Z,100399.45
2017-10-24T23:57:18.825Z,100396.47
2017-10-24T23:59:46.319Z,100399.86
